createdAt,value
2018-12-04T00:01:04.578Z,10.25
2018-12-04T00:03:34.191Z,10.20
2018-12-04T00:06:04.803Z,10.22
2018-12-04T00:08:34.523Z,10.17
2018-12-04T00:11:03.898Z,10.21
2018-12-04T00:13:33.417Z,10.29
2018-12-04T00:16:03.312Z,10.23
2018-12-04T00:18:32.824Z,10.24
2018-12-04T00:21:02.157Z,10.21
2018-12-04T00:23:31.864Z,10.21
2018-12-04T00:26:01.384Z,10.21
2018-12-04T00:28:30.987Z,10.19
2018-12-04T00:31:00.549Z,10.09
2018-12-04T00:33:29.964Z,10.16
2018-12-04T00:35:59.703Z,10.09
2018-12-04T00:38:29.146Z,10.05
2018-12-04T00:40:58.496Z,9.95
2018-12-04T00:43:27.853Z,9.85
2018-12-04T00:45:57.727Z,9.74
2018-12-04T00:48:27.078Z,9.63
2018-12-04T00:50:56.441Z,9.62
2018-12-04T00:53:26.346Z,9.56
2018-12-04T00:55:55.727Z,9.51
2018-12-04T00:58:25.337Z,9.45
2018-12-04T01:00:54.951Z,9.39
2018-12-04T01:03:24.468Z,9.30
2018-12-04T01:05:54.377Z,9.34
2018-12-04T01:08:23.702Z,9.31
2018-12-04T01:10:53.183Z,9.23
2018-12-04T01:13:22.602Z,9.18
2018-12-04T01:15:52.291Z,9.09
2018-12-04T01:18:21.653Z,9.06
2018-12-04T01:20:51.046Z,9.05
2018-12-04T01:23:21.218Z,9.03
2018-12-04T01:25:51.151Z,9.01
2018-12-04T01:28:20.555Z,8.96
2018-12-04T01:30:51.817Z,8.91
2018-12-04T01:33:21.176Z,8.91
2018-12-04T01:35:50.948Z,8.86
2018-12-04T01:38:20.260Z,8.83
2018-12-04T01:40:49.618Z,8.76
2018-12-04T01:43:19.549Z,8.73
2018-12-04T01:45:49.032Z,8.71
2018-12-04T01:48:18.583Z,8.71
2018-12-04T01:50:48.214Z,8.69
2018-12-04T01:53:17.581Z,8.69
2018-12-04T01:55:48.662Z,8.68
2018-12-04T01:58:17.972Z,8.61
2018-12-04T02:00:47.310Z,8.60
2018-12-04T02:03:17.221Z,8.58
2018-12-04T02:05:46.548Z,8.61
2018-12-04T02:08:15.986Z,8.58
2018-12-04T02:10:45.779Z,8.63
2018-12-04T02:13:15.189Z,8.65
2018-12-04T02:15:44.733Z,8.69
2018-12-04T02:18:14.567Z,8.78
2018-12-04T02:20:44.029Z,8.75
2018-12-04T02:23:13.608Z,8.71
2018-12-04T02:25:43.137Z,8.72
2018-12-04T02:28:12.584Z,8.67
2018-12-04T02:30:42.629Z,8.66
2018-12-04T02:33:12.058Z,8.67
2018-12-04T02:35:41.611Z,8.63
2018-12-04T02:38:11.260Z,8.56
2018-12-04T02:40:40.796Z,8.57
2018-12-04T02:43:10.728Z,8.50
2018-12-04T02:45:40.263Z,8.43
2018-12-04T02:48:09.753Z,8.40
2018-12-04T02:50:39.357Z,8.35
2018-12-04T02:53:08.733Z,8.29
2018-12-04T02:55:38.104Z,8.30
2018-12-04T02:58:07.941Z,8.36
2018-12-04T03:00:37.364Z,8.40
2018-12-04T03:03:06.948Z,8.49
2018-12-04T03:05:36.640Z,8.64
2018-12-04T03:08:06.059Z,8.64
2018-12-04T03:10:36.085Z,8.66
2018-12-04T03:13:05.498Z,8.70
2018-12-04T03:15:35.505Z,8.75
2018-12-04T03:18:04.854Z,8.79
2018-12-04T03:20:34.851Z,8.79
2018-12-04T03:23:04.297Z,8.77
2018-12-04T03:25:34.297Z,8.74
2018-12-04T03:28:03.731Z,8.70
2018-12-04T03:30:36.591Z,8.66
2018-12-04T03:33:06.135Z,8.63
2018-12-04T03:35:36.075Z,8.58
2018-12-04T03:38:05.625Z,8.55
2018-12-04T03:40:36.626Z,8.51
2018-12-04T03:43:06.054Z,8.45
2018-12-04T03:45:35.524Z,8.45
2018-12-04T03:48:05.471Z,8.45
2018-12-04T03:50:35.409Z,8.47
2018-12-04T03:53:04.725Z,8.45
2018-12-04T03:55:34.635Z,8.43
2018-12-04T03:58:04.038Z,8.43
2018-12-04T04:00:33.511Z,8.44
2018-12-04T04:03:03.307Z,8.46
2018-12-04T04:05:32.875Z,8.48
2018-12-04T04:08:02.759Z,8.44
2018-12-04T04:10:32.191Z,8.36
2018-12-04T04:13:01.675Z,8.34
2018-12-04T04:15:31.530Z,8.33
2018-12-04T04:18:01.679Z,8.29
2018-12-04T04:20:31.130Z,8.26
2018-12-04T04:23:01.030Z,8.27
2018-12-04T04:25:30.639Z,8.23
2018-12-04T04:28:00.349Z,8.14
2018-12-04T04:30:29.679Z,8.12
2018-12-04T04:32:59.061Z,8.14
2018-12-04T04:35:30.438Z,8.14
2018-12-04T04:38:00.193Z,8.13
2018-12-04T04:40:29.565Z,8.07
2018-12-04T04:42:58.970Z,8.06
2018-12-04T04:45:28.796Z,8.03
2018-12-04T04:47:59.224Z,8.03
2018-12-04T04:50:28.587Z,8.02
2018-12-04T04:52:58.519Z,8.07
2018-12-04T04:55:27.987Z,8.10
2018-12-04T04:57:57.979Z,8.16
2018-12-04T05:00:27.281Z,8.20
2018-12-04T05:02:56.802Z,8.22
2018-12-04T05:05:28.478Z,8.22
2018-12-04T05:07:57.970Z,8.19
2018-12-04T05:10:27.374Z,8.17
2018-12-04T05:12:57.009Z,8.09
2018-12-04T05:15:26.466Z,8.03
2018-12-04T05:17:55.982Z,7.96
2018-12-04T05:20:25.952Z,7.92
2018-12-04T05:22:55.429Z,7.88
2018-12-04T05:25:25.209Z,7.91
2018-12-04T05:27:54.612Z,7.91
2018-12-04T05:30:24.138Z,7.88
2018-12-04T05:32:53.550Z,7.77
2018-12-04T05:35:23.143Z,7.75
2018-12-04T05:38:34.442Z,7.72
2018-12-04T05:41:03.879Z,7.69
2018-12-04T05:43:33.386Z,7.62
2018-12-04T05:46:03.094Z,7.56
2018-12-04T05:48:32.416Z,7.44
2018-12-04T05:51:02.446Z,7.42
2018-12-04T05:53:33.744Z,7.43
2018-12-04T05:56:03.966Z,7.46
2018-12-04T05:58:33.976Z,7.50
2018-12-04T06:01:03.567Z,7.51
2018-12-04T06:03:33.517Z,7.54
2018-12-04T06:06:04.025Z,7.54
2018-12-04T06:08:33.756Z,7.78
2018-12-04T06:11:03.175Z,7.90
2018-12-04T06:13:32.538Z,7.96
2018-12-04T06:16:02.077Z,7.99
2018-12-04T06:18:31.654Z,8.00
2018-12-04T06:21:02.205Z,8.00
2018-12-04T06:23:31.689Z,7.97
2018-12-04T06:26:01.517Z,7.93
2018-12-04T06:28:31.603Z,7.92
2018-12-04T06:31:01.846Z,7.89
2018-12-04T06:33:31.635Z,7.86
2018-12-04T06:36:01.058Z,7.85
2018-12-04T06:38:31.274Z,7.79
2018-12-04T06:41:01.529Z,7.80
2018-12-04T06:43:30.850Z,7.75
2018-12-04T06:46:00.986Z,7.71
2018-12-04T06:48:30.510Z,7.66
2018-12-04T06:51:00.081Z,7.69
2018-12-04T06:53:29.570Z,7.67
2018-12-04T06:55:59.071Z,7.67
2018-12-04T06:58:29.188Z,7.60
2018-12-04T07:00:59.845Z,7.68
2018-12-04T07:03:29.576Z,7.62
2018-12-04T07:05:59.964Z,7.59
2018-12-04T07:08:30.346Z,7.57
2018-12-04T07:10:59.693Z,7.58
2018-12-04T07:13:29.436Z,7.54
2018-12-04T07:15:59.554Z,7.55
2018-12-04T07:18:30.549Z,7.53
2018-12-04T07:21:01.091Z,7.56
2018-12-04T07:23:30.956Z,7.53
2018-12-04T07:26:01.310Z,7.54
2018-12-04T07:28:31.606Z,7.53
2018-12-04T07:31:01.947Z,7.58
2018-12-04T07:33:31.955Z,7.62
2018-12-04T07:36:01.515Z,7.63
2018-12-04T07:38:33.204Z,7.65
2018-12-04T07:41:02.675Z,7.66
2018-12-04T07:43:32.470Z,7.65
2018-12-04T07:46:01.981Z,7.64
2018-12-04T07:48:31.550Z,7.65
2018-12-04T07:51:01.136Z,7.63
2018-12-04T07:53:31.607Z,7.57
2018-12-04T07:56:02.383Z,7.58
2018-12-04T07:58:32.804Z,7.62
2018-12-04T08:01:02.227Z,7.65
2018-12-04T08:03:32.375Z,7.64
2018-12-04T08:06:06.806Z,7.63
2018-12-04T08:08:36.229Z,7.65
2018-12-04T08:11:05.693Z,7.73
2018-12-04T08:13:35.962Z,7.78
2018-12-04T08:16:06.051Z,7.79
2018-12-04T08:18:36.699Z,7.88
2018-12-04T08:21:06.556Z,7.94
2018-12-04T08:23:36.674Z,7.99
2018-12-04T08:26:07.096Z,7.92
2018-12-04T08:28:37.230Z,7.97
2018-12-04T08:31:07.281Z,7.96
2018-12-04T08:33:37.686Z,8.05
2018-12-04T08:36:07.521Z,7.96
2018-12-04T08:38:37.270Z,8.07
2018-12-04T08:41:07.685Z,8.16
2018-12-04T08:43:37.361Z,8.27
2018-12-04T08:46:06.841Z,8.33
2018-12-04T08:48:36.794Z,8.40
2018-12-04T08:51:07.119Z,8.60
2018-12-04T08:53:36.794Z,8.84
2018-12-04T08:56:07.259Z,8.91
2018-12-04T08:58:36.701Z,8.98
2018-12-04T09:01:06.622Z,9.11
2018-12-04T09:03:36.926Z,9.35
2018-12-04T09:06:10.586Z,9.58
2018-12-04T09:08:40.273Z,9.68
2018-12-04T09:11:11.501Z,9.73
2018-12-04T09:13:41.665Z,9.79
2018-12-04T09:16:12.919Z,9.73
2018-12-04T09:18:42.538Z,9.50
2018-12-04T09:21:12.144Z,9.27
2018-12-04T09:23:42.354Z,9.22
2018-12-04T09:26:12.534Z,9.12
2018-12-04T09:28:42.147Z,9.16
2018-12-04T09:31:11.961Z,8.89
2018-12-04T09:33:41.441Z,8.86
2018-12-04T09:36:12.401Z,8.70
2018-12-04T09:38:42.594Z,8.67
2018-12-04T09:41:12.108Z,8.62
2018-12-04T09:43:42.844Z,8.69
2018-12-04T09:46:13.556Z,8.64
2018-12-04T09:48:43.577Z,8.71
2018-12-04T09:51:13.664Z,8.73
2018-12-04T09:53:44.786Z,8.82
2018-12-04T09:56:14.169Z,8.94
2018-12-04T09:58:44.070Z,9.22
2018-12-04T10:01:13.810Z,9.34
2018-12-04T10:03:43.364Z,9.28
2018-12-04T10:06:13.029Z,9.04
2018-12-04T10:08:42.653Z,9.03
2018-12-04T10:11:12.236Z,9.46
2018-12-04T10:13:41.766Z,9.90
2018-12-04T10:16:11.468Z,10.13
2018-12-04T10:18:47.476Z,10.30
2018-12-04T10:21:14.021Z,10.57
2018-12-04T10:23:43.710Z,10.62
2018-12-04T10:26:13.414Z,10.70
2018-12-04T10:28:43.634Z,10.78
2018-12-04T10:31:13.313Z,10.64
2018-12-04T10:33:43.093Z,10.40
2018-12-04T10:36:13.399Z,10.08
2018-12-04T10:38:43.127Z,10.09
2018-12-04T10:41:12.601Z,9.78
2018-12-04T10:43:42.065Z,9.87
2018-12-04T10:46:11.762Z,9.58
2018-12-04T10:48:41.365Z,9.52
2018-12-04T10:51:11.471Z,9.49
2018-12-04T10:53:40.859Z,9.45
2018-12-04T10:56:10.285Z,9.53
2018-12-04T10:58:39.780Z,9.50
2018-12-04T11:01:14.446Z,9.68
2018-12-04T11:03:44.445Z,9.70
2018-12-04T11:06:13.772Z,9.75
2018-12-04T11:08:43.143Z,9.90
2018-12-04T11:11:12.725Z,10.00
2018-12-04T11:13:42.290Z,9.80
2018-12-04T11:16:12.570Z,9.76
2018-12-04T11:18:42.674Z,9.69
2018-12-04T11:21:12.122Z,9.51
2018-12-04T11:23:41.458Z,9.37
2018-12-04T11:26:12.393Z,9.42
2018-12-04T11:28:42.539Z,9.38
2018-12-04T11:31:12.415Z,9.43
2018-12-04T11:33:41.845Z,9.43
2018-12-04T11:36:12.149Z,9.52
2018-12-04T11:38:41.724Z,9.47
2018-12-04T11:41:11.335Z,9.45
2018-12-04T11:43:40.949Z,9.30
2018-12-04T11:46:11.061Z,9.40
2018-12-04T11:48:41.458Z,9.45
2018-12-04T11:51:11.436Z,9.48
2018-12-04T11:53:41.715Z,9.43
2018-12-04T11:56:11.994Z,9.35
2018-12-04T11:58:41.990Z,9.34
2018-12-04T12:01:16.376Z,9.45
2018-12-04T12:03:46.519Z,9.57
2018-12-04T12:06:16.832Z,9.75
2018-12-04T12:08:46.701Z,9.72
2018-12-04T12:11:16.140Z,9.66
2018-12-04T12:13:46.250Z,9.73
2018-12-04T12:16:16.280Z,9.83
2018-12-04T12:18:46.814Z,9.92
2018-12-04T12:21:16.637Z,9.93
2018-12-04T12:23:46.313Z,9.95
2018-12-04T12:26:16.224Z,9.95
2018-12-04T12:28:47.262Z,9.89
2018-12-04T12:31:17.495Z,9.99
2018-12-04T12:33:46.866Z,9.86
2018-12-04T12:36:16.517Z,9.90
2018-12-04T12:38:47.026Z,9.96
2018-12-04T12:41:17.367Z,9.92
2018-12-04T12:43:47.606Z,9.67
2018-12-04T12:46:18.221Z,9.70
2018-12-04T12:48:48.052Z,9.73
2018-12-04T12:51:18.617Z,9.72
2018-12-04T12:53:48.256Z,9.77
2018-12-04T12:56:17.716Z,9.88
2018-12-04T12:58:47.243Z,9.83
2018-12-04T13:01:18.446Z,9.78
2018-12-04T13:03:48.287Z,9.80
2018-12-04T13:06:17.881Z,9.76
2018-12-04T13:08:47.518Z,9.83
2018-12-04T13:11:16.919Z,9.69
2018-12-04T13:13:47.006Z,9.62
2018-12-04T13:16:16.410Z,9.76
2018-12-04T13:18:45.989Z,9.86
2018-12-04T13:21:15.560Z,9.86
2018-12-04T13:23:45.817Z,9.88
2018-12-04T13:26:15.325Z,9.73
2018-12-04T13:28:45.183Z,9.85
2018-12-04T13:31:15.535Z,9.98
2018-12-04T13:33:45.827Z,10.00
2018-12-04T13:36:15.439Z,10.02
2018-12-04T13:38:45.291Z,9.83
2018-12-04T13:41:15.127Z,9.80
2018-12-04T13:47:19.982Z,9.40
2018-12-04T13:49:50.089Z,9.28
2018-12-04T13:52:20.289Z,9.16
2018-12-04T13:54:50.535Z,9.12
2018-12-04T13:57:20.786Z,8.83
2018-12-04T13:59:50.858Z,8.78
2018-12-04T14:02:20.350Z,8.77
2018-12-04T14:04:49.944Z,8.79
2018-12-04T14:07:19.507Z,8.85
2018-12-04T14:09:49.891Z,8.83
2018-12-04T14:12:21.078Z,8.61
2018-12-04T14:14:51.058Z,8.68
2018-12-04T14:17:20.436Z,8.56
2018-12-04T14:19:49.828Z,8.48
2018-12-04T14:22:19.377Z,8.46
2018-12-04T14:24:48.988Z,8.45
2018-12-04T14:27:19.214Z,8.30
2018-12-04T14:29:49.469Z,8.28
2018-12-04T14:32:19.651Z,8.26
2018-12-04T14:34:48.976Z,8.16
2018-12-04T14:37:19.006Z,8.26
2018-12-04T14:39:49.429Z,8.30
2018-12-04T14:42:20.841Z,8.32
2018-12-04T14:44:50.720Z,8.32
2018-12-04T14:47:20.434Z,8.23
2018-12-04T14:49:50.048Z,8.19
2018-12-04T14:52:19.791Z,8.14
2018-12-04T14:54:49.734Z,8.20
2018-12-04T15:02:12.157Z,8.05
2018-12-04T15:04:41.670Z,8.04
2018-12-04T15:07:11.649Z,7.98
2018-12-04T15:09:41.851Z,8.05
2018-12-04T15:12:11.187Z,8.05
2018-12-04T15:14:40.584Z,8.05
2018-12-04T15:17:10.151Z,8.07
2018-12-04T15:19:39.869Z,8.04
2018-12-04T15:22:09.945Z,7.99
2018-12-04T15:24:39.668Z,8.01
2018-12-04T15:27:09.360Z,7.93
2018-12-04T15:29:39.459Z,7.87
2018-12-04T15:32:09.055Z,7.75
2018-12-04T15:34:38.935Z,7.65
2018-12-04T15:37:09.244Z,7.62
2018-12-04T15:39:39.462Z,7.66
2018-12-04T15:42:09.650Z,7.68
2018-12-04T15:44:39.299Z,7.71
2018-12-04T15:48:12.542Z,7.73
2018-12-04T15:50:42.583Z,7.64
2018-12-04T15:53:11.975Z,7.70
2018-12-04T15:55:41.654Z,7.48
2018-12-04T15:58:11.196Z,7.41
2018-12-04T16:00:40.734Z,7.50
2018-12-04T16:03:10.477Z,7.53
2018-12-04T16:05:40.809Z,7.46
2018-12-04T16:08:10.201Z,7.54
2018-12-04T16:10:40.417Z,7.57
2018-12-04T16:13:10.317Z,7.54
2018-12-04T16:15:39.965Z,7.52
2018-12-04T16:18:10.457Z,7.52
2018-12-04T16:20:40.032Z,7.44
2018-12-04T16:23:09.466Z,7.37
2018-12-04T16:25:39.096Z,7.35
2018-12-04T16:28:08.793Z,7.36
2018-12-04T16:30:39.853Z,7.35
2018-12-04T16:33:09.359Z,7.29
2018-12-04T16:35:39.252Z,7.31
2018-12-04T16:38:08.723Z,7.28
2018-12-04T16:40:38.627Z,7.24
2018-12-04T16:43:08.055Z,7.19
2018-12-04T16:45:37.469Z,7.18
2018-12-04T16:48:07.379Z,7.19
2018-12-04T16:50:37.089Z,7.22
2018-12-04T16:53:08.139Z,7.24
2018-12-04T16:55:37.882Z,7.21
2018-12-04T16:58:07.407Z,7.20
2018-12-04T17:00:37.311Z,7.18
2018-12-04T17:03:06.674Z,7.14
2018-12-04T17:05:37.151Z,7.14
2018-12-04T17:08:07.183Z,7.10
2018-12-04T17:10:37.304Z,7.09
2018-12-04T17:13:07.324Z,7.06
2018-12-04T17:15:37.764Z,6.94
2018-12-04T17:18:07.652Z,6.82
2018-12-04T17:20:37.083Z,6.88
2018-12-04T17:23:07.087Z,6.95
2018-12-04T17:25:37.576Z,6.93
2018-12-04T17:28:07.455Z,6.94
2018-12-04T17:30:36.932Z,6.98
2018-12-04T17:33:06.544Z,7.01
2018-12-04T17:35:36.359Z,7.04
2018-12-04T17:38:06.512Z,7.01
2018-12-04T17:40:36.513Z,6.99
2018-12-04T17:43:05.904Z,6.94
2018-12-04T17:45:36.115Z,6.92
2018-12-04T17:48:05.574Z,6.96
2018-12-04T17:50:35.020Z,6.94
2018-12-04T17:53:04.642Z,6.91
2018-12-04T17:55:34.132Z,6.93
2018-12-04T17:58:05.908Z,6.90
2018-12-04T18:00:36.260Z,6.86
2018-12-04T18:03:06.767Z,6.84
2018-12-04T18:05:36.334Z,6.84
2018-12-04T18:08:05.843Z,6.85
2018-12-04T18:10:37.014Z,6.86
2018-12-04T18:13:06.025Z,6.85
2018-12-04T18:15:38.450Z,6.84
2018-12-04T18:18:08.645Z,6.80
2018-12-04T18:20:38.755Z,6.75
2018-12-04T18:23:08.255Z,6.72
2018-12-04T18:25:37.838Z,6.75
2018-12-04T18:28:07.453Z,6.73
2018-12-04T18:30:37.695Z,6.70
2018-12-04T18:33:07.250Z,6.68
2018-12-04T18:35:37.080Z,6.66
2018-12-04T18:38:06.523Z,6.63
2018-12-04T18:40:36.493Z,6.63
2018-12-04T18:43:06.835Z,6.59
2018-12-04T18:45:36.901Z,6.56
2018-12-04T18:48:07.213Z,6.43
2018-12-04T18:50:36.806Z,6.44
2018-12-04T18:53:06.407Z,6.44
2018-12-04T18:55:35.826Z,6.45
2018-12-04T18:58:06.062Z,6.34
2018-12-04T19:00:35.925Z,6.25
2018-12-04T19:03:05.569Z,6.25
2018-12-04T19:05:35.473Z,6.27
2018-12-04T19:08:05.064Z,6.25
2018-12-04T19:10:34.875Z,6.19
2018-12-04T19:13:04.240Z,6.20
2018-12-04T19:15:34.388Z,6.18
2018-12-04T19:18:05.691Z,6.10
2018-12-04T19:20:35.206Z,6.10
2018-12-04T19:23:04.960Z,6.11
2018-12-04T19:25:34.454Z,6.13
2018-12-04T19:28:03.999Z,6.10
2018-12-04T19:30:33.752Z,6.04
2018-12-04T19:33:03.885Z,5.99
2018-12-04T19:35:33.609Z,5.97
2018-12-04T19:38:03.298Z,5.93
2018-12-04T19:40:34.183Z,5.81
2018-12-04T19:43:03.631Z,5.77
2018-12-04T19:45:33.965Z,5.79
2018-12-04T19:48:03.848Z,5.60
2018-12-04T19:50:33.241Z,5.61
2018-12-04T19:53:03.545Z,5.65
2018-12-04T19:55:33.733Z,5.69
2018-12-04T19:58:03.838Z,5.66
2018-12-04T20:00:33.192Z,5.70
2018-12-04T20:03:03.293Z,5.68
2018-12-04T20:05:32.745Z,5.64
2018-12-04T20:08:02.771Z,5.63
2018-12-04T20:10:32.871Z,5.61
2018-12-04T20:13:02.951Z,5.50
2018-12-04T20:15:34.266Z,5.40
2018-12-04T20:18:04.654Z,5.25
2018-12-04T20:20:34.256Z,5.19
2018-12-04T20:23:03.881Z,5.15
2018-12-04T20:25:33.869Z,4.96
2018-12-04T20:28:04.911Z,4.92
2018-12-04T20:30:34.739Z,4.88
2018-12-04T20:33:04.370Z,4.86
2018-12-04T20:35:33.930Z,4.80
2018-12-04T20:38:04.105Z,4.88
2018-12-04T20:40:33.590Z,4.86
2018-12-04T20:43:03.591Z,4.83
2018-12-04T20:45:33.830Z,4.81
2018-12-04T20:48:06.149Z,4.76
2018-12-04T20:50:36.706Z,4.78
2018-12-04T20:53:06.325Z,4.81
2018-12-04T20:55:36.572Z,4.89
2018-12-04T20:58:06.484Z,4.93
2018-12-04T21:00:36.859Z,4.91
2018-12-04T21:03:08.177Z,4.90
2018-12-04T21:05:38.094Z,4.90
2018-12-04T21:08:07.553Z,4.92
2018-12-04T21:10:37.629Z,4.95
2018-12-04T21:13:14.293Z,4.93
2018-12-04T21:15:38.706Z,4.91
2018-12-04T21:18:08.294Z,4.93
2018-12-04T21:20:37.990Z,5.01
2018-12-04T21:23:07.551Z,5.02
2018-12-04T21:25:36.903Z,5.01
2018-12-04T21:28:12.092Z,4.97
2018-12-04T21:30:47.233Z,4.91
2018-12-04T21:33:21.959Z,4.89
2018-12-04T21:35:56.536Z,4.82
2018-12-04T21:38:31.323Z,4.73
2018-12-04T21:41:06.966Z,4.74
2018-12-04T21:43:41.604Z,4.81
2018-12-04T21:46:16.461Z,4.82
2018-12-04T21:48:47.508Z,4.84
2018-12-04T21:51:17.053Z,4.84
2018-12-04T21:53:46.493Z,4.86
2018-12-04T21:56:16.303Z,4.86
2018-12-04T21:58:45.596Z,4.85
2018-12-04T22:01:15.292Z,4.85
2018-12-04T22:03:44.921Z,4.85
2018-12-04T22:06:15.190Z,4.86
2018-12-04T22:08:45.134Z,4.84
2018-12-04T22:11:15.471Z,4.87
2018-12-04T22:13:44.770Z,4.82
2018-12-04T22:16:14.176Z,4.79
2018-12-04T22:18:44.116Z,4.79
2018-12-04T22:21:14.307Z,4.80
2018-12-04T22:23:44.407Z,4.82
2018-12-04T22:26:13.790Z,4.87
2018-12-04T22:28:43.200Z,4.88
2018-12-04T22:31:13.081Z,4.83
2018-12-04T22:33:43.240Z,4.77
2018-12-04T22:36:13.320Z,4.75
2018-12-04T22:38:42.725Z,4.77
2018-12-04T22:41:12.907Z,4.83
2018-12-04T22:43:43.094Z,4.84
2018-12-04T22:46:12.466Z,4.84
2018-12-04T22:48:41.824Z,4.80
2018-12-04T22:51:11.523Z,4.73
2018-12-04T22:53:41.009Z,4.70
2018-12-04T22:56:11.309Z,4.68
2018-12-04T22:58:40.598Z,4.72
2018-12-04T23:01:10.986Z,4.72
2018-12-04T23:03:40.711Z,4.71
2018-12-04T23:06:10.071Z,4.71
2018-12-04T23:08:44.306Z,4.69
2018-12-04T23:11:14.369Z,4.74
2018-12-04T23:13:43.775Z,4.71
2018-12-04T23:16:13.728Z,4.66
2018-12-04T23:18:42.982Z,4.62
2018-12-04T23:21:12.239Z,4.62
2018-12-04T23:23:41.551Z,4.59
2018-12-04T23:26:10.789Z,4.52
2018-12-04T23:28:42.982Z,4.52
2018-12-04T23:31:12.732Z,4.51
2018-12-04T23:33:42.238Z,4.52
2018-12-04T23:36:11.723Z,4.57
2018-12-04T23:38:41.637Z,4.62
2018-12-04T23:41:11.129Z,4.60
2018-12-04T23:43:40.770Z,4.62
2018-12-04T23:46:10.364Z,4.66
2018-12-04T23:48:39.906Z,4.66
2018-12-04T23:51:10.480Z,4.64
2018-12-04T23:53:39.927Z,4.61
2018-12-04T23:56:09.256Z,4.64
2018-12-04T23:58:39.319Z,4.65
